createdAt,value
2023-03-04T00:02:00.558Z,99033.52
2023-03-04T00:05:58.782Z,99029.22
2023-03-04T00:09:56.558Z,99023.27
2023-03-04T00:13:54.573Z,99017.89
2023-03-04T00:17:52.635Z,99007.61
2023-03-04T00:21:50.544Z,99003.27
2023-03-04T00:25:48.584Z,98996.95
2023-03-04T00:29:46.553Z,98987.55
2023-03-04T00:33:44.571Z,98992.46
2023-03-04T00:37:44.561Z,98996.23
2023-03-04T00:41:42.552Z,98988.11
2023-03-04T00:45:40.898Z,98975.66
2023-03-04T00:49:38.452Z,98976.80
2023-03-04T00:53:36.580Z,98976.86
2023-03-04T00:57:34.559Z,98967.20
2023-03-04T01:01:32.591Z,98965.64
2023-03-04T01:05:30.513Z,98956.84
2023-03-04T01:09:28.425Z,98944.10
2023-03-04T01:13:26.406Z,98936.74
2023-03-04T01:17:24.450Z,98925.55
2023-03-04T01:21:22.475Z,98911.22
2023-03-04T01:25:21.429Z,98898.81
2023-03-04T01:29:19.359Z,98887.05
2023-03-04T01:33:17.441Z,98880.27
2023-03-04T01:37:16.498Z,98872.09
2023-03-04T01:41:14.445Z,98864.40
2023-03-04T01:45:12.365Z,98855.85
2023-03-04T01:49:10.700Z,98852.00
2023-03-04T01:53:08.409Z,98851.16
2023-03-04T01:57:07.389Z,98846.64
2023-03-04T02:01:05.353Z,98843.02
2023-03-04T02:05:03.466Z,98844.98
2023-03-04T02:09:01.348Z,98839.16
2023-03-04T02:12:59.402Z,98837.26
2023-03-04T02:16:58.386Z,98851.08
2023-03-04T02:21:07.367Z,98841.11
2023-03-04T02:25:11.387Z,98842.63
2023-03-04T02:29:11.418Z,98829.76
2023-03-04T02:33:09.330Z,98826.41
2023-03-04T02:37:09.352Z,98832.23
2023-03-04T02:41:09.297Z,98831.13
2023-03-04T02:45:14.340Z,98828.54
2023-03-04T02:49:12.315Z,98821.28
2023-03-04T02:53:10.979Z,98819.15
2023-03-04T02:57:10.373Z,98810.64
2023-03-04T03:01:10.349Z,98802.21
2023-03-04T03:05:08.265Z,98792.19
2023-03-04T03:09:06.277Z,98787.67
2023-03-04T03:13:04.278Z,98771.71
2023-03-04T03:17:02.326Z,98763.58
2023-03-04T03:21:00.291Z,98740.69
2023-03-04T03:24:58.379Z,98711.93
2023-03-04T03:28:56.230Z,98705.89
2023-03-04T03:32:54.287Z,98697.27
2023-03-04T03:36:52.239Z,98704.64
2023-03-04T03:40:50.259Z,98703.41
2023-03-04T03:44:48.266Z,98702.84
2023-03-04T03:48:46.266Z,98680.88
2023-03-04T03:52:44.328Z,98669.89
2023-03-04T03:56:42.309Z,98676.46
2023-03-04T04:00:40.284Z,98676.58
2023-03-04T04:04:38.195Z,98675.41
2023-03-04T04:08:36.219Z,98666.21
2023-03-04T04:12:34.209Z,98663.20
2023-03-04T04:16:32.209Z,98666.80
2023-03-04T04:20:30.285Z,98664.45
2023-03-04T04:24:28.261Z,98662.99
2023-03-04T04:28:26.189Z,98665.53
2023-03-04T04:32:24.254Z,98673.83
2023-03-04T04:36:24.210Z,98689.94
2023-03-04T04:40:22.128Z,98691.59
2023-03-04T04:44:20.197Z,98693.44
2023-03-04T04:48:18.085Z,98695.82
2023-03-04T04:52:16.265Z,98690.09
2023-03-04T04:56:14.239Z,98697.66
2023-03-04T05:00:12.325Z,98689.39
2023-03-04T05:04:10.104Z,98691.66
2023-03-04T05:08:09.197Z,98693.91
2023-03-04T05:12:07.087Z,98696.19
2023-03-04T05:16:10.261Z,98696.34
2023-03-04T05:20:08.061Z,98698.84
2023-03-04T05:24:06.138Z,98699.38
2023-03-04T05:28:04.086Z,98696.79
2023-03-04T05:32:02.132Z,98694.33
2023-03-04T05:36:02.192Z,98704.23
2023-03-04T05:40:00.110Z,98698.42
2023-03-04T05:43:59.020Z,98700.47
2023-03-04T05:47:57.084Z,98700.16
2023-03-04T05:51:55.084Z,98704.59
2023-03-04T05:55:54.066Z,98697.91
2023-03-04T05:59:52.141Z,98700.71
2023-03-04T06:03:50.167Z,98701.45
2023-03-04T06:07:49.998Z,98694.48
2023-03-04T06:11:48.028Z,98696.91
2023-03-04T06:15:45.987Z,98693.14
2023-03-04T06:19:45.078Z,98697.18
2023-03-04T06:23:44.028Z,98689.38
2023-03-04T06:27:42.089Z,98688.81
2023-03-04T06:31:40.094Z,98684.17
2023-03-04T06:35:38.038Z,98683.38
2023-03-04T06:39:35.925Z,98682.45
2023-03-04T06:43:33.974Z,98679.08
2023-03-04T06:47:31.953Z,98676.83
2023-03-04T06:51:30.063Z,98675.88
2023-03-04T06:55:28.962Z,98679.00
2023-03-04T06:59:26.944Z,98669.88
2023-03-04T07:03:26.911Z,98670.58
2023-03-04T07:07:25.903Z,98672.02
2023-03-04T07:11:23.958Z,98659.74
2023-03-04T07:15:24.092Z,98651.83
2023-03-04T07:19:21.967Z,98648.89
2023-03-04T07:23:19.945Z,98649.21
2023-03-04T07:27:17.856Z,98650.13
2023-03-04T07:31:38.054Z,98644.25
2023-03-04T07:35:36.943Z,98643.33
2023-03-04T07:39:34.868Z,98648.30
2023-03-04T07:43:32.858Z,98642.80
2023-03-04T07:47:30.957Z,98640.90
2023-03-04T07:51:31.839Z,98646.04
2023-03-04T07:55:30.908Z,98641.12
2023-03-04T07:59:28.809Z,98642.49
2023-03-04T08:03:26.966Z,98647.00
2023-03-04T08:07:24.835Z,98648.35
2023-03-04T08:11:27.845Z,98643.37
2023-03-04T08:15:25.825Z,98644.05
2023-03-04T08:19:25.886Z,98646.98
2023-03-04T08:23:24.832Z,98645.04
2023-03-04T08:27:24.191Z,98645.40
2023-03-04T08:31:21.952Z,98646.59
2023-03-04T08:35:19.858Z,98644.09
2023-03-04T08:39:18.800Z,98643.06
2023-03-04T08:43:16.887Z,98632.77
2023-03-04T08:47:16.812Z,98633.35
2023-03-04T08:51:14.811Z,98625.35
2023-03-04T08:55:12.788Z,98625.95
2023-03-04T08:59:10.975Z,98622.57
2023-03-04T09:03:08.842Z,98620.50
2023-03-04T09:07:07.032Z,98621.55
2023-03-04T09:11:07.728Z,98620.64
2023-03-04T09:15:11.680Z,98618.40
2023-03-04T09:19:09.869Z,98617.14
2023-03-04T09:23:07.976Z,98613.16
2023-03-04T09:27:06.754Z,98617.45
2023-03-04T09:31:04.881Z,98616.80
2023-03-04T09:35:02.678Z,98610.86
2023-03-04T09:39:00.892Z,98613.98
2023-03-04T09:43:04.700Z,98610.95
2023-03-04T09:47:05.862Z,98615.33
2023-03-04T09:51:34.755Z,98607.98
2023-03-04T09:55:46.700Z,98605.46
2023-03-04T09:59:59.808Z,98602.25
2023-03-04T10:04:08.686Z,98600.95
2023-03-04T10:08:43.737Z,98596.09
2023-03-04T10:12:44.719Z,98598.98
2023-03-04T10:16:49.668Z,98592.94
2023-03-04T10:21:36.626Z,98585.45
2023-03-04T10:25:43.614Z,98577.48
2023-03-04T10:29:45.313Z,98568.81
2023-03-04T10:33:45.610Z,98567.05
2023-03-04T10:37:59.660Z,98561.41
2023-03-04T10:41:59.708Z,98558.82
2023-03-04T10:45:57.669Z,98549.45
2023-03-04T10:50:13.593Z,98550.99
2023-03-04T10:54:36.586Z,98545.60
2023-03-04T10:58:35.554Z,98544.56
2023-03-04T11:02:50.565Z,98538.17
2023-03-04T11:06:55.561Z,98528.64
2023-03-04T11:10:56.572Z,98522.48
2023-03-04T11:15:01.525Z,98511.31
2023-03-04T11:19:07.774Z,98505.42
2023-03-04T11:23:06.534Z,98502.68
2023-03-04T11:27:09.621Z,98493.56
2023-03-04T11:31:14.619Z,98485.73
2023-03-04T11:35:33.746Z,98479.33
2023-03-04T11:39:39.472Z,98478.94
2023-03-04T11:43:44.570Z,98474.63
2023-03-04T11:48:01.543Z,98471.20
2023-03-04T11:52:17.537Z,98468.70
2023-03-04T11:56:25.516Z,98464.05
2023-03-04T12:00:44.539Z,98458.78
2023-03-04T12:05:01.591Z,98457.15
2023-03-04T12:09:17.549Z,98454.18
2023-03-04T12:13:34.480Z,98452.08
2023-03-04T12:17:44.517Z,98447.20
2023-03-04T12:21:42.513Z,98454.22
2023-03-04T12:25:50.480Z,98450.09
2023-03-04T12:30:14.456Z,98452.09
2023-03-04T12:34:50.484Z,98447.04
2023-03-04T12:39:04.434Z,98451.17
2023-03-04T12:43:09.700Z,98447.73
2023-03-04T12:47:20.468Z,98449.33
2023-03-04T12:51:55.456Z,98447.66
2023-03-04T12:55:56.465Z,98441.63
2023-03-04T13:00:04.455Z,98435.67
2023-03-04T13:04:07.433Z,98432.16
2023-03-04T13:08:42.526Z,98422.97
2023-03-04T13:12:40.498Z,98420.29
2023-03-04T13:16:50.572Z,98415.63
2023-03-04T13:20:55.496Z,98410.21
2023-03-04T13:25:02.605Z,98411.04
2023-03-04T13:29:00.569Z,98402.04
2023-03-04T13:32:58.450Z,98399.52
2023-03-04T13:37:11.330Z,98394.99
2023-03-04T13:41:27.482Z,98401.21
2023-03-04T13:45:05.946Z,98401.83
2023-03-04T13:48:36.744Z,98394.39
2023-03-04T13:52:40.659Z,98389.46
2023-03-04T13:56:39.838Z,98385.98
2023-03-04T14:00:08.469Z,98383.98
2023-03-04T14:03:33.159Z,98383.47
2023-03-04T14:07:03.046Z,98377.73
2023-03-04T14:10:27.480Z,98371.94
2023-03-04T14:13:59.237Z,98367.06
2023-03-04T14:17:40.007Z,98361.27
2023-03-04T14:21:06.037Z,98353.92
2023-03-04T14:24:35.860Z,98358.14
2023-03-04T14:28:14.070Z,98346.70
2023-03-04T14:31:39.705Z,98345.28
2023-03-04T14:35:21.771Z,98343.19
2023-03-04T14:38:53.450Z,98337.36
2023-03-04T14:42:19.079Z,98339.48
2023-03-04T14:45:57.000Z,98337.08
2023-03-04T14:49:21.448Z,98333.05
2023-03-04T14:52:51.926Z,98330.43
2023-03-04T14:56:17.352Z,98326.76
2023-03-04T14:59:41.525Z,98319.03
2023-03-04T15:03:09.626Z,98310.84
2023-03-04T15:06:36.147Z,98306.64
2023-03-04T15:10:00.943Z,98306.77
2023-03-04T15:13:40.518Z,98307.64
2023-03-04T15:17:04.525Z,98310.77
2023-03-04T15:20:32.258Z,98302.58
2023-03-04T15:23:56.229Z,98302.11
2023-03-04T15:27:24.086Z,98304.30
2023-03-04T15:30:49.669Z,98303.30
2023-03-04T15:34:18.723Z,98305.16
2023-03-04T15:37:43.718Z,98304.12
2023-03-04T15:41:07.799Z,98313.13
2023-03-04T15:44:31.679Z,98318.84
2023-03-04T15:47:56.160Z,98325.45
2023-03-04T15:51:23.943Z,98332.67
2023-03-04T15:54:49.975Z,98350.46
2023-03-04T15:58:15.495Z,98347.23
2023-03-04T16:01:39.534Z,98345.39
2023-03-04T16:05:03.500Z,98335.34
2023-03-04T16:08:27.793Z,98333.34
2023-03-04T16:11:53.456Z,98340.25
2023-03-04T16:15:20.345Z,98353.04
2023-03-04T16:18:45.146Z,98351.28
2023-03-04T16:22:24.359Z,98348.25
2023-03-04T16:25:50.646Z,98357.10
2023-03-04T16:29:15.414Z,98363.71
2023-03-04T16:32:39.322Z,98362.59
2023-03-04T16:36:05.550Z,98368.42
2023-03-04T16:39:29.488Z,98372.80
2023-03-04T16:42:53.373Z,98372.96
2023-03-04T16:46:17.323Z,98380.36
2023-03-04T16:49:41.947Z,98390.73
2023-03-04T16:53:06.700Z,98386.17
2023-03-04T16:56:30.732Z,98397.61
2023-03-04T16:59:55.151Z,98401.94
2023-03-04T17:03:19.114Z,98404.98
2023-03-04T17:06:42.991Z,98409.78
2023-03-04T17:10:07.676Z,98417.69
2023-03-04T17:13:31.517Z,98427.52
2023-03-04T17:16:55.749Z,98425.84
2023-03-04T17:20:20.470Z,98437.45
2023-03-04T17:23:45.557Z,98443.36
2023-03-04T17:27:09.515Z,98447.61
2023-03-04T17:30:33.797Z,98444.80
2023-03-04T17:33:57.719Z,98450.48
2023-03-04T17:37:21.581Z,98451.80
2023-03-04T17:40:46.005Z,98463.19
2023-03-04T17:44:11.253Z,98462.98
2023-03-04T17:47:36.220Z,98472.85
2023-03-04T17:51:00.303Z,98489.34
2023-03-04T17:54:26.508Z,98501.98
2023-03-04T17:57:53.000Z,98518.05
2023-03-04T18:01:21.482Z,98538.71
2023-03-04T18:04:48.487Z,98542.87
2023-03-04T18:08:12.675Z,98532.69
2023-03-04T18:11:39.464Z,98546.08
2023-03-04T18:15:03.406Z,98554.52
2023-03-04T18:18:27.366Z,98554.95
2023-03-04T18:21:51.372Z,98570.91
2023-03-04T18:25:15.314Z,98579.13
2023-03-04T18:28:39.948Z,98576.79
2023-03-04T18:32:03.980Z,98585.69
2023-03-04T18:35:28.111Z,98577.95
2023-03-04T18:38:52.208Z,98593.75
2023-03-04T18:42:16.290Z,98592.39
2023-03-04T18:45:40.431Z,98595.24
2023-03-04T18:49:08.747Z,98605.80
2023-03-04T18:52:32.703Z,98611.63
2023-03-04T18:56:03.167Z,98612.77
2023-03-04T18:59:37.115Z,98621.64
2023-03-04T19:03:07.172Z,98628.55
2023-03-04T19:06:33.143Z,98637.43
2023-03-04T19:09:57.007Z,98641.20
2023-03-04T19:13:22.869Z,98647.48
2023-03-04T19:16:46.828Z,98653.34
2023-03-04T19:20:11.407Z,98661.30
2023-03-04T19:23:35.372Z,98667.11
2023-03-04T19:26:59.700Z,98661.56
2023-03-04T19:30:23.986Z,98663.98
2023-03-04T19:33:48.758Z,98672.12
2023-03-04T19:37:13.381Z,98674.86
2023-03-04T19:40:41.125Z,98667.09
2023-03-04T19:44:05.440Z,98679.38
2023-03-04T19:47:29.766Z,98696.27
2023-03-04T19:50:53.766Z,98699.84
2023-03-04T19:54:18.005Z,98708.90
2023-03-04T19:57:42.888Z,98713.75
2023-03-04T20:01:07.184Z,98718.08
2023-03-04T20:04:31.673Z,98721.58
2023-03-04T20:07:55.981Z,98723.20
2023-03-04T20:11:20.352Z,98730.73
2023-03-04T20:14:44.573Z,98720.85
2023-03-04T20:18:08.649Z,98729.50
2023-03-04T20:21:37.520Z,98735.25
2023-03-04T20:25:01.984Z,98735.38
2023-03-04T20:28:26.955Z,98741.02
2023-03-04T20:31:50.983Z,98746.23
2023-03-04T20:35:15.613Z,98747.02
2023-03-04T20:38:39.518Z,98745.65
2023-03-04T20:42:03.955Z,98741.91
2023-03-04T20:45:27.822Z,98748.27
2023-03-04T20:48:52.153Z,98751.33
2023-03-04T20:52:16.130Z,98751.95
2023-03-04T20:55:40.447Z,98756.50
2023-03-04T20:59:07.822Z,98761.63
2023-03-04T21:02:31.965Z,98756.25
2023-03-04T21:05:56.713Z,98764.41
2023-03-04T21:09:23.001Z,98756.58
2023-03-04T21:12:48.736Z,98760.69
2023-03-04T21:16:14.972Z,98758.17
2023-03-04T21:19:45.190Z,98760.64
2023-03-04T21:23:09.182Z,98758.23
2023-03-04T21:26:33.157Z,98760.08
2023-03-04T21:29:57.244Z,98765.86
2023-03-04T21:33:21.661Z,98764.83
2023-03-04T21:36:46.482Z,98766.14
2023-03-04T21:40:11.300Z,98772.87
2023-03-04T21:43:35.164Z,98778.02
2023-03-04T21:47:00.842Z,98775.94
2023-03-04T21:50:25.036Z,98772.81
2023-03-04T21:53:48.932Z,98773.45
2023-03-04T21:57:13.838Z,98773.23
2023-03-04T22:00:39.280Z,98768.42
2023-03-04T22:04:04.201Z,98765.35
2023-03-04T22:07:28.152Z,98763.37
2023-03-04T22:10:52.091Z,98761.57
2023-03-04T22:14:16.574Z,98763.41
2023-03-04T22:17:41.665Z,98768.24
2023-03-04T22:21:08.879Z,98770.02
2023-03-04T22:24:33.038Z,98771.55
2023-03-04T22:27:57.551Z,98774.30
2023-03-04T22:31:33.621Z,98775.14
2023-03-04T22:34:57.621Z,98775.15
2023-03-04T22:38:22.834Z,98777.09
2023-03-04T22:41:47.024Z,98782.32
2023-03-04T22:45:12.991Z,98780.20
2023-03-04T22:48:37.087Z,98785.80
2023-03-04T22:52:01.113Z,98780.11
2023-03-04T22:55:25.108Z,98781.15
2023-03-04T22:58:49.809Z,98784.26
2023-03-04T23:02:13.695Z,98779.77
2023-03-04T23:05:39.070Z,98780.96
2023-03-04T23:09:03.254Z,98782.41
2023-03-04T23:12:27.210Z,98786.79
2023-03-04T23:15:51.222Z,98784.78
2023-03-04T23:19:20.433Z,98789.70
2023-03-04T23:22:45.070Z,98791.56
2023-03-04T23:26:23.625Z,98792.45
2023-03-04T23:29:47.862Z,98794.40
2023-03-04T23:33:11.954Z,98794.73
2023-03-04T23:36:37.301Z,98794.55
2023-03-04T23:40:01.362Z,98793.11
2023-03-04T23:43:27.370Z,98792.48
2023-03-04T23:46:51.546Z,98795.63
2023-03-04T23:50:16.149Z,98794.34
2023-03-04T23:53:40.015Z,98793.39
2023-03-04T23:57:03.986Z,98793.92
